Time;durP1;ratioP1;P1;durP2;ratioP2;P2;SDS_P1;SDS_P2;PMS_P1;PMS_P2;Temp;Humidity;BMP_temperature;BMP_pressure;BME280_temperature;BME280_humidity;BME280_pressure;Samples;Min_cycle;Max_cycle;Signal;HPM_P1;HPM_P2
2023/01/25 08:23:25;;;;;;;13.97;8.17;;;3.50;99.90;;;;;;4952477;29;20456;-67
2023/01/25 08:25:52;;;;;;;15.03;8.10;;;3.40;99.90;;;;;;4952239;28;20453;-66
2023/01/25 08:28:19;;;;;;;16.07;8.47;;;3.40;99.90;;;;;;4949963;29;20459;-67
2023/01/25 08:30:45;;;;;;;15.43;9.00;;;3.30;99.90;;;;;;4949193;28;20469;-67
2023/01/25 08:33:12;;;;;;;15.97;8.80;;;3.40;99.90;;;;;;4949527;29;20979;-67
2023/01/25 08:35:39;;;;;;;16.87;8.90;;;3.40;99.90;;;;;;4949654;29;20449;-66
2023/01/25 08:38:06;;;;;;;15.00;9.40;;;3.40;99.90;;;;;;4949587;29;20825;-67
2023/01/25 08:40:34;;;;;;;14.70;9.03;;;3.40;99.90;;;;;;4948664;28;20496;-67
2023/01/25 08:43:00;;;;;;;13.30;8.40;;;3.40;99.90;;;;;;4949802;29;20456;-67
2023/01/25 08:45:27;;;;;;;15.70;8.83;;;3.40;99.90;;;;;;4949680;29;20457;-68
2023/01/25 08:47:54;;;;;;;13.77;8.87;;;3.40;99.90;;;;;;4949525;29;20460;-66
2023/01/25 08:50:21;;;;;;;14.10;8.60;;;3.40;99.90;;;;;;4948997;28;20862;-66
2023/01/25 08:52:47;;;;;;;17.17;9.20;;;3.40;99.90;;;;;;4949206;29;20989;-68
2023/01/25 08:55:14;;;;;;;15.10;9.63;;;3.40;99.90;;;;;;4949095;29;21031;-66
2023/01/25 08:57:43;;;;;;;16.63;9.30;;;3.40;99.90;;;;;;4949067;29;20948;-66
2023/01/25 09:00:11;;;;;;;16.37;9.70;;;3.40;99.90;;;;;;4948579;28;20584;-66
2023/01/25 09:02:38;;;;;;;17.47;9.60;;;3.40;99.90;;;;;;4949242;29;20484;-66
2023/01/25 09:05:05;;;;;;;13.53;9.20;;;3.40;99.90;;;;;;4949553;29;20460;-68
2023/01/25 09:07:36;;;;;;;16.93;9.63;;;3.40;99.90;;;;;;4948688;28;20954;-68
2023/01/25 09:10:03;;;;;;;18.70;10.07;;;3.40;99.90;;;;;;4948483;28;20457;-68
2023/01/25 09:12:30;;;;;;;17.73;10.10;;;3.30;99.90;;;;;;4949437;29;20463;-68
2023/01/25 09:14:58;;;;;;;15.77;10.27;;;3.30;99.90;;;;;;4949467;29;20511;-68
2023/01/25 09:17:25;;;;;;;15.53;8.97;;;3.40;99.90;;;;;;4949508;28;20856;-68
2023/01/25 09:19:52;;;;;;;17.30;9.40;;;3.40;99.90;;;;;;4948668;28;20517;-68
2023/01/25 09:22:19;;;;;;;15.40;9.27;;;3.40;99.90;;;;;;4948511;29;20501;-69
2023/01/25 09:24:50;;;;;;;17.73;11.00;;;3.40;99.90;;;;;;4949241;29;20465;-68
2023/01/25 09:27:18;;;;;;;20.37;10.17;;;3.30;99.90;;;;;;4949279;29;20448;-71
2023/01/25 09:29:44;;;;;;;15.00;8.87;;;3.40;99.90;;;;;;4948755;28;21285;-69
2023/01/25 09:32:12;;;;;;;20.87;10.63;;;3.40;99.90;;;;;;4948668;29;20449;-69
2023/01/25 09:34:40;;;;;;;17.50;10.37;;;3.30;99.90;;;;;;4948755;29;20458;-69
2023/01/25 09:37:07;;;;;;;20.57;11.97;;;3.30;99.90;;;;;;4949022;29;21040;-68
2023/01/25 09:39:33;;;;;;;19.73;10.60;;;3.30;99.90;;;;;;4948458;28;20508;-69
2023/01/25 09:42:36;;;;;;;18.53;10.67;;;3.30;99.90;;;;;;4948183;28;20477;-69
2023/01/25 09:45:20;;;;;;;18.37;9.83;;;3.30;99.90;;;;;;4947805;28;20463;-70
2023/01/25 09:47:54;;;;;;;17.97;10.30;;;3.30;99.90;;;;;;4947340;28;20452;-69
2023/01/25 09:50:35;;;;;;;17.43;10.23;;;3.30;99.90;;;;;;4947638;28;20477;-69
2023/01/25 09:53:20;;;;;;;21.57;10.20;;;3.30;99.90;;;;;;4948501;29;20430;-68
2023/01/25 09:55:52;;;;;;;18.90;10.57;;;3.30;99.90;;;;;;4948992;29;20456;-68
2023/01/25 09:58:21;;;;;;;17.90;11.00;;;3.30;99.90;;;;;;4948407;29;20548;-68
2023/01/25 10:00:53;;;;;;;15.87;10.00;;;3.30;99.90;;;;;;4947267;28;21032;-68
2023/01/25 10:03:27;;;;;;;19.83;11.30;;;3.20;99.90;;;;;;4948312;29;20978;-70
2023/01/25 10:05:57;;;;;;;17.63;11.10;;;3.20;99.90;;;;;;4948154;29;20461;-71
2023/01/25 10:08:31;;;;;;;18.90;12.17;;;3.20;99.90;;;;;;4948472;29;21232;-67
2023/01/25 10:11:04;;;;;;;21.07;11.77;;;3.30;99.90;;;;;;4947787;28;20474;-67
2023/01/25 10:13:31;;;;;;;21.33;12.13;;;3.30;99.90;;;;;;4948384;29;20473;-66
2023/01/25 10:38:47;;;;;;;20.20;11.07;;;3.30;99.90;;;;;;4947381;29;20463;-64
2023/01/25 10:41:25;;;;;;;21.43;11.67;;;3.40;99.90;;;;;;4946522;28;20507;-64
2023/01/25 10:44:20;;;;;;;19.87;10.90;;;3.30;99.90;;;;;;4947675;29;21001;-64
2023/01/25 10:46:49;;;;;;;21.97;12.13;;;3.30;99.90;;;;;;4947744;29;20504;-64
2023/01/25 10:49:25;;;;;;;18.50;12.00;;;3.30;99.90;;;;;;4947324;29;20630;-65
2023/01/25 10:51:51;;;;;;;19.77;11.93;;;3.30;99.90;;;;;;4946415;28;20477;-64
2023/01/25 10:57:51;;;;;;;21.75;12.70;;;3.40;99.90;;;;;;4946846;29;21166;-67
2023/01/25 11:00:26;;;;;;;21.77;11.73;;;3.60;99.90;;;;;;4946714;28;20344;-66
2023/01/25 11:02:58;;;;;;;23.20;11.90;;;3.70;99.90;;;;;;4947775;28;20439;-67
2023/01/25 11:06:01;;;;;;;19.40;10.63;;;3.60;99.90;;;;;;4947546;28;20454;-66
2023/01/25 11:11:28;;;;;;;22.40;11.90;;;3.60;99.90;;;;;;4946474;28;20556;-67
2023/01/25 11:14:03;;;;;;;22.17;11.77;;;3.50;99.90;;;;;;4947767;28;20797;-66
2023/01/25 11:19:29;;;;;;;22.40;11.87;;;3.50;99.90;;;;;;4944753;28;20451;-66
2023/01/25 11:22:04;;;;;;;18.97;10.77;;;3.40;99.90;;;;;;4946321;28;20488;-65
2023/01/25 11:24:38;;;;;;;19.33;11.90;;;3.40;99.90;;;;;;4947261;29;20441;-66
2023/01/25 11:27:16;;;;;;;22.27;13.07;;;3.40;99.90;;;;;;4946828;28;20460;-67
2023/01/25 11:30:08;;;;;;;24.97;13.10;;;3.50;99.90;;;;;;4946634;29;20449;-66
2023/01/25 11:35:36;;;;;;;22.97;13.33;;;3.40;99.90;;;;;;4947248;29;20493;-66
2023/01/25 11:38:38;;;;;;;22.80;13.40;;;3.50;99.90;;;;;;4946935;28;20464;-66
2023/01/25 14:38:39;;;;;;;27.57;15.03;;;3.60;99.90;;;;;;4984172;28;20580;-63
2023/01/25 14:41:12;;;;;;;32.10;15.70;;;3.60;99.90;;;;;;4976788;28;20527;-64
2023/01/25 14:43:44;;;;;;;32.37;16.80;;;3.50;99.90;;;;;;4985839;28;20475;-63
2023/01/25 14:46:21;;;;;;;28.87;15.43;;;3.50;99.90;;;;;;4987017;28;20447;-62
2023/01/25 14:48:48;;;;;;;29.30;15.90;;;3.60;99.90;;;;;;4986557;28;20459;-63
2023/01/25 14:51:20;;;;;;;28.23;15.70;;;3.50;99.90;;;;;;4986574;28;20459;-72
2023/01/25 14:53:55;;;;;;;29.77;15.43;;;3.50;99.90;;;;;;4985760;28;20475;-72
2023/01/25 14:56:33;;;;;;;30.00;14.40;;;3.40;99.90;;;;;;4986936;28;20501;-71
2023/01/25 14:59:01;;;;;;;32.07;16.93;;;3.50;99.90;;;;;;4986779;28;20440;-72
2023/01/25 15:01:36;;;;;;;30.20;16.10;;;3.50;99.90;;;;;;4986099;28;20843;-73
2023/01/25 15:04:04;;;;;;;28.10;15.60;;;3.50;99.90;;;;;;4985869;28;20533;-73
2023/01/25 15:06:31;;;;;;;32.47;14.60;;;3.50;99.90;;;;;;4986940;28;20467;-74
2023/01/25 15:08:59;;;;;;;31.90;15.80;;;3.50;99.90;;;;;;4984946;28;20466;-74
2023/01/25 15:11:44;;;;;;;27.77;14.20;;;3.60;99.90;;;;;;4985896;28;20456;-74
2023/01/25 15:14:17;;;;;;;28.33;16.13;;;3.60;99.90;;;;;;4985805;28;20514;-73
2023/01/25 15:16:44;;;;;;;28.53;15.30;;;3.70;99.90;;;;;;4986515;28;20435;-73
2023/01/25 15:19:26;;;;;;;32.27;16.30;;;3.70;99.90;;;;;;4985969;28;20482;-74
2023/01/25 15:21:58;;;;;;;32.50;16.50;;;3.70;99.90;;;;;;4985536;28;20509;-73
2023/01/25 15:24:27;;;;;;;28.30;14.70;;;3.60;99.90;;;;;;4985868;28;20490;-73
2023/01/25 15:26:55;;;;;;;35.57;17.27;;;3.60;99.90;;;;;;4986099;28;20959;-73
2023/01/25 15:29:25;;;;;;;36.90;16.20;;;3.60;99.90;;;;;;4986129;28;20971;-74
2023/01/25 15:31:53;;;;;;;30.50;17.10;;;3.60;99.90;;;;;;4985811;28;20455;-74
2023/01/25 15:34:21;;;;;;;26.43;15.07;;;3.60;99.90;;;;;;4985471;28;20483;-73
2023/01/25 15:36:48;;;;;;;33.10;16.27;;;3.50;99.90;;;;;;4948971;28;20921;-73
2023/01/25 15:39:17;;;;;;;30.07;15.10;;;3.60;99.90;;;;;;4950837;29;20472;-73
2023/01/25 15:41:45;;;;;;;30.33;16.30;;;3.50;99.90;;;;;;4950107;29;20492;-73
2023/01/25 15:44:13;;;;;;;35.77;15.50;;;3.50;99.90;;;;;;4949388;28;20481;-73
2023/01/25 15:46:41;;;;;;;34.07;14.90;;;3.50;99.90;;;;;;4949980;29;20457;-73
2023/01/25 15:49:13;;;;;;;32.27;17.07;;;3.50;99.90;;;;;;4949825;29;20461;-77
2023/01/25 15:51:40;;;;;;;35.30;17.60;;;3.40;99.90;;;;;;4950178;29;20457;-76
2023/01/25 15:54:07;;;;;;;33.23;17.73;;;3.40;99.90;;;;;;4949722;28;21261;-74
2023/01/25 15:56:36;;;;;;;33.33;16.93;;;3.40;99.90;;;;;;4950727;29;20456;-73
2023/01/25 15:59:08;;;;;;;30.63;15.80;;;3.40;99.90;;;;;;4950612;29;20468;-71
2023/01/25 16:01:35;;;;;;;32.87;16.53;;;3.40;99.90;;;;;;4950898;28;20492;-73
2023/01/25 16:04:02;;;;;;;33.23;17.37;;;3.40;99.90;;;;;;4949936;28;20850;-73
2023/01/25 16:06:36;;;;;;;31.73;16.00;;;3.40;99.90;;;;;;4950912;29;20468;-73
2023/01/25 16:09:11;;;;;;;33.67;15.83;;;3.40;99.90;;;;;;4950475;29;20456;-71
2023/01/25 16:11:38;;;;;;;30.13;16.40;;;3.50;99.90;;;;;;4950666;29;20433;-74
2023/01/25 16:14:07;;;;;;;32.67;16.57;;;3.40;99.90;;;;;;4950111;28;20487;-73
2023/01/25 16:16:36;;;;;;;31.20;16.53;;;3.50;99.90;;;;;;4950505;29;20453;-72
2023/01/25 16:19:03;;;;;;;31.83;16.00;;;3.40;99.90;;;;;;4950196;28;20899;-73
2023/01/25 16:21:30;;;;;;;31.30;17.00;;;3.40;99.90;;;;;;4950084;28;21001;-73
2023/01/25 16:23:56;;;;;;;36.77;17.03;;;3.40;99.90;;;;;;4950083;28;20480;-75
2023/01/25 16:26:25;;;;;;;29.10;15.57;;;3.40;99.90;;;;;;4950286;28;20464;-76
2023/01/25 16:28:52;;;;;;;34.80;16.73;;;3.30;99.90;;;;;;4950335;29;20461;-74
2023/01/25 16:31:20;;;;;;;29.80;15.30;;;3.30;99.90;;;;;;4950245;29;20827;-75
2023/01/25 16:33:47;;;;;;;31.33;16.60;;;3.30;99.90;;;;;;4949802;28;20484;-76
2023/01/25 16:36:17;;;;;;;28.87;16.57;;;3.30;99.90;;;;;;4950114;29;20571;-76
2023/01/25 16:38:45;;;;;;;33.33;17.27;;;3.30;99.90;;;;;;4949784;29;20572;-76
2023/01/25 16:41:12;;;;;;;31.90;16.27;;;3.30;99.90;;;;;;4950199;29;20583;-77
2023/01/25 16:43:40;;;;;;;33.10;15.87;;;3.30;99.90;;;;;;4949004;28;20477;-73
2023/01/25 16:46:15;;;;;;;32.03;18.33;;;3.30;99.90;;;;;;4950246;29;20456;-75
2023/01/25 16:48:43;;;;;;;36.57;16.23;;;3.30;99.90;;;;;;4948847;28;20797;-76
2023/01/25 16:51:18;;;;;;;34.80;16.10;;;3.20;99.90;;;;;;4949804;29;20456;-76
2023/01/25 16:53:46;;;;;;;32.00;15.53;;;3.20;99.90;;;;;;4949215;28;20468;-72
2023/01/25 16:56:18;;;;;;;36.30;17.00;;;3.10;99.90;;;;;;4949934;29;20448;-76
2023/01/25 16:58:45;;;;;;;33.97;16.73;;;3.10;99.90;;;;;;4976253;28;20807;-75
2023/01/25 17:01:14;;;;;;;35.87;18.40;;;3.10;99.90;;;;;;4988198;28;20498;-76
2023/01/25 17:03:42;;;;;;;29.70;15.63;;;3.20;99.90;;;;;;4986433;28;21004;-76
2023/01/25 17:06:16;;;;;;;38.40;17.30;;;3.20;99.90;;;;;;4988502;28;20680;-76
2023/01/25 17:08:42;;;;;;;38.20;17.73;;;3.30;99.90;;;;;;4988442;28;20610;-72
2023/01/25 17:11:09;;;;;;;31.73;16.97;;;3.30;99.90;;;;;;4988592;28;20548;-75
2023/01/25 17:13:36;;;;;;;30.93;16.70;;;3.30;99.90;;;;;;4987845;28;20479;-76
2023/01/25 17:16:03;;;;;;;31.70;15.77;;;3.30;99.90;;;;;;4988348;28;20455;-75
2023/01/25 17:18:30;;;;;;;34.17;16.10;;;3.30;99.90;;;;;;4988416;28;20455;-75
2023/01/25 17:20:59;;;;;;;31.80;16.50;;;3.30;99.90;;;;;;4986438;28;20517;-76
2023/01/25 17:23:27;;;;;;;34.63;16.97;;;3.20;99.90;;;;;;4986815;28;20471;-74
2023/01/25 17:25:54;;;;;;;32.60;17.03;;;3.20;99.90;;;;;;4987474;28;20452;-75
2023/01/25 17:28:22;;;;;;;33.33;17.00;;;3.20;99.90;;;;;;4987917;28;20544;-75
2023/01/25 17:30:50;;;;;;;33.90;19.13;;;3.20;99.90;;;;;;4987688;28;20451;-76
2023/01/25 17:33:17;;;;;;;33.97;16.93;;;3.30;99.90;;;;;;4986661;28;21326;-76
2023/01/25 17:35:44;;;;;;;31.30;16.80;;;3.30;99.90;;;;;;4987868;28;20460;-75
2023/01/25 17:38:13;;;;;;;30.50;17.17;;;3.20;99.90;;;;;;4987718;28;20479;-75
2023/01/25 17:40:39;;;;;;;36.60;17.60;;;3.20;99.90;;;;;;4987495;28;20912;-74
2023/01/25 17:43:06;;;;;;;39.40;18.40;;;3.10;99.90;;;;;;4986801;28;20455;-76
2023/01/25 17:45:37;;;;;;;41.30;20.47;;;3.20;99.90;;;;;;4987140;28;20830;-76
2023/01/25 17:48:06;;;;;;;39.67;18.67;;;3.30;99.90;;;;;;4987259;28;20440;-76
2023/01/25 17:50:33;;;;;;;37.70;18.23;;;3.30;99.90;;;;;;4987442;28;21271;-75
2023/01/25 17:53:00;;;;;;;34.33;18.27;;;3.30;99.90;;;;;;4986454;28;20466;-76
2023/01/25 17:55:28;;;;;;;37.93;18.13;;;3.30;99.90;;;;;;4987412;28;20455;-76
2023/01/25 17:57:55;;;;;;;35.33;18.73;;;3.20;99.90;;;;;;4987911;28;20498;-76
2023/01/25 18:00:22;;;;;;;39.37;18.80;;;3.20;99.90;;;;;;4987400;28;20448;-76
2023/01/25 18:02:50;;;;;;;38.17;19.90;;;3.20;99.90;;;;;;4987258;28;20487;-76
2023/01/25 18:05:17;;;;;;;38.70;18.17;;;3.20;99.90;;;;;;4987198;28;20468;-77
2023/01/25 18:07:44;;;;;;;35.30;17.77;;;3.20;99.90;;;;;;4987512;28;20463;-76
2023/01/25 18:10:12;;;;;;;31.70;16.27;;;3.20;99.90;;;;;;4986832;28;21317;-76
2023/01/25 18:12:40;;;;;;;36.40;16.97;;;3.20;99.90;;;;;;4986877;28;20458;-76
2023/01/25 18:15:08;;;;;;;35.00;16.87;;;3.20;99.90;;;;;;4986214;28;20476;-76
2023/01/25 18:17:37;;;;;;;30.70;15.93;;;3.10;99.90;;;;;;4986588;28;20460;-75
2023/01/25 18:20:05;;;;;;;36.73;17.13;;;3.20;99.90;;;;;;4987157;28;21095;-76
2023/01/25 18:22:32;;;;;;;34.23;16.40;;;3.20;99.90;;;;;;4986925;28;20491;-76
2023/01/25 18:24:59;;;;;;;34.67;16.23;;;3.20;99.90;;;;;;4985428;28;21003;-76
2023/01/25 18:27:27;;;;;;;32.23;16.30;;;3.20;99.90;;;;;;4986582;28;20990;-76
2023/01/25 18:30:00;;;;;;;32.70;16.73;;;3.20;99.90;;;;;;4987035;28;21184;-75
2023/01/25 18:32:27;;;;;;;28.77;15.90;;;3.20;99.90;;;;;;4986447;28;20494;-75
2023/01/25 18:34:54;;;;;;;35.60;17.20;;;3.30;99.90;;;;;;4986148;28;20486;-76
2023/01/25 18:37:22;;;;;;;32.40;15.50;;;3.30;99.90;;;;;;4986702;28;20459;-76
2023/01/25 18:39:50;;;;;;;36.33;16.23;;;3.20;99.90;;;;;;4986453;28;20507;-76
2023/01/25 18:42:18;;;;;;;34.70;16.33;;;3.20;99.90;;;;;;4986533;28;20495;-76
2023/01/25 18:44:47;;;;;;;32.40;16.13;;;3.20;99.90;;;;;;4986044;28;20478;-76
2023/01/25 18:47:17;;;;;;;34.20;17.30;;;3.10;99.90;;;;;;4986387;28;20462;-76
2023/01/25 18:49:44;;;;;;;34.00;16.47;;;3.10;99.90;;;;;;4986278;28;20497;-76
2023/01/25 18:52:11;;;;;;;36.23;18.03;;;3.10;99.90;;;;;;4986346;28;21276;-76
2023/01/25 18:54:38;;;;;;;33.33;17.40;;;3.10;99.90;;;;;;4986017;28;20467;-76
2023/01/25 18:57:05;;;;;;;37.93;18.57;;;3.10;99.90;;;;;;4986570;28;20540;-75
2023/01/25 18:59:32;;;;;;;29.83;16.80;;;3.20;99.90;;;;;;4986121;28;20582;-76
2023/01/25 19:01:59;;;;;;;32.20;16.90;;;3.20;99.90;;;;;;4986122;28;20492;-76
2023/01/25 19:04:27;;;;;;;39.07;17.43;;;3.20;99.90;;;;;;4985360;28;20480;-76
2023/01/25 19:06:56;;;;;;;40.43;19.60;;;3.20;99.90;;;;;;4986794;28;20452;-76
2023/01/25 19:09:23;;;;;;;35.60;16.47;;;3.20;99.90;;;;;;4986573;28;20494;-76
2023/01/25 19:11:50;;;;;;;34.87;15.97;;;3.10;99.90;;;;;;4985607;28;20971;-76
2023/01/25 19:14:17;;;;;;;36.67;18.20;;;3.10;99.90;;;;;;4985764;28;20479;-76
2023/01/25 19:16:44;;;;;;;28.57;17.03;;;3.10;99.90;;;;;;4984296;28;20469;-75
2023/01/25 19:19:11;;;;;;;37.40;20.23;;;3.20;99.90;;;;;;4984924;28;20960;-75
2023/01/25 19:21:40;;;;;;;30.07;14.60;;;3.20;99.90;;;;;;4985582;28;20498;-72
2023/01/25 19:24:11;;;;;;;32.20;17.17;;;3.20;99.90;;;;;;4984424;28;20999;-71
2023/01/25 19:26:38;;;;;;;29.93;14.40;;;3.30;99.90;;;;;;4985232;28;21125;-74
2023/01/25 19:29:05;;;;;;;27.20;14.90;;;3.20;99.90;;;;;;4985319;28;20466;-71
2023/01/25 19:31:32;;;;;;;35.40;16.97;;;3.10;99.90;;;;;;4984800;28;20456;-70
2023/01/25 19:34:01;;;;;;;36.17;18.23;;;3.00;99.90;;;;;;4984069;28;20481;-71
2023/01/25 19:36:29;;;;;;;29.70;15.60;;;3.00;99.90;;;;;;4985278;28;21482;-71
2023/01/25 19:38:57;;;;;;;23.90;14.33;;;3.00;99.90;;;;;;4985682;28;20471;-71
2023/01/25 19:41:26;;;;;;;36.53;18.70;;;3.00;99.90;;;;;;4985480;28;20487;-71
2023/01/25 19:43:53;;;;;;;35.53;19.90;;;3.10;99.90;;;;;;4984647;28;20479;-71
2023/01/25 19:46:22;;;;;;;38.33;19.67;;;3.10;99.90;;;;;;4985493;28;20455;-70
2023/01/25 19:48:50;;;;;;;34.60;17.20;;;3.20;99.90;;;;;;4985958;28;20541;-72
2023/01/25 19:51:19;;;;;;;23.50;13.80;;;3.10;99.90;;;;;;4984874;28;20465;-72
2023/01/25 19:53:47;;;;;;;28.37;14.97;;;3.10;99.90;;;;;;4984020;28;20991;-71
2023/01/25 19:56:17;;;;;;;30.20;16.03;;;3.10;99.90;;;;;;4984758;28;20452;-73
2023/01/25 19:58:46;;;;;;;27.33;14.47;;;3.10;99.90;;;;;;4984982;28;20459;-73
2023/01/25 20:01:14;;;;;;;21.73;13.10;;;3.10;99.90;;;;;;4985040;28;20451;-72
2023/01/25 20:03:41;;;;;;;26.70;14.07;;;3.20;99.90;;;;;;4984179;28;20476;-70
2023/01/25 20:06:09;;;;;;;24.30;13.50;;;3.20;99.90;;;;;;4984686;28;20455;-70
2023/01/25 20:08:37;;;;;;;22.90;12.30;;;3.20;99.90;;;;;;4984687;28;20447;-73
2023/01/25 20:11:06;;;;;;;23.53;13.47;;;3.20;99.90;;;;;;4984705;28;20455;-70
2023/01/25 20:13:34;;;;;;;31.73;14.30;;;3.20;99.90;;;;;;4984104;28;20499;-70
2023/01/25 20:16:01;;;;;;;27.43;13.80;;;3.10;99.90;;;;;;4984764;28;20464;-70
2023/01/25 20:18:30;;;;;;;24.40;12.83;;;3.10;99.90;;;;;;4984842;28;20458;-70
2023/01/25 20:20:58;;;;;;;24.70;14.27;;;3.10;99.90;;;;;;4984637;28;20463;-70
2023/01/25 20:23:25;;;;;;;22.63;12.87;;;3.10;99.90;;;;;;4986505;28;20503;-70
2023/01/25 20:25:59;;;;;;;23.83;12.97;;;3.10;99.90;;;;;;4987763;28;20742;-70
2023/01/25 20:28:27;;;;;;;23.07;12.60;;;3.10;99.90;;;;;;4988164;28;20450;-71
2023/01/25 20:30:57;;;;;;;28.77;14.97;;;3.10;99.90;;;;;;4988265;28;20466;-70
2023/01/25 20:33:23;;;;;;;57.77;26.73;;;3.10;99.90;;;;;;4987610;28;20507;-70
2023/01/25 20:35:53;;;;;;;32.50;19.10;;;3.10;99.90;;;;;;4987832;28;21131;-71
2023/01/25 20:38:19;;;;;;;30.30;17.43;;;3.10;99.90;;;;;;4987383;28;21035;-71
2023/01/25 20:40:46;;;;;;;33.03;17.50;;;3.10;99.90;;;;;;4987943;28;20987;-72
2023/01/25 20:43:13;;;;;;;33.27;15.77;;;3.20;99.90;;;;;;4987353;28;20681;-74
2023/01/25 20:45:40;;;;;;;27.23;14.57;;;3.20;99.90;;;;;;4987975;28;20456;-74
2023/01/25 20:48:08;;;;;;;28.00;15.53;;;3.20;99.90;;;;;;4988200;28;20459;-70
2023/01/25 20:50:35;;;;;;;26.00;14.77;;;3.20;99.90;;;;;;4987876;28;20466;-70
2023/01/25 20:53:02;;;;;;;29.20;15.30;;;3.20;99.90;;;;;;4986773;28;20814;-70
2023/01/25 20:55:29;;;;;;;26.27;15.23;;;3.20;99.90;;;;;;4987606;28;20452;-70
2023/01/25 20:57:55;;;;;;;25.33;14.33;;;3.20;99.90;;;;;;4987827;28;20451;-71
2023/01/25 21:00:24;;;;;;;23.70;14.17;;;3.20;99.90;;;;;;4987719;28;20463;-70
2023/01/25 21:02:51;;;;;;;28.67;15.40;;;3.20;99.90;;;;;;4986970;28;20495;-73
2023/01/25 21:05:19;;;;;;;27.03;14.13;;;3.20;99.90;;;;;;4986835;28;20706;-73
2023/01/25 21:07:46;;;;;;;28.57;14.70;;;3.20;99.90;;;;;;4987533;28;20459;-72
2023/01/25 21:10:12;;;;;;;24.13;14.53;;;3.20;99.90;;;;;;4987620;28;20456;-70
2023/01/25 21:12:39;;;;;;;28.87;17.53;;;3.20;99.90;;;;;;4987384;28;20455;-71
2023/01/25 21:15:07;;;;;;;29.60;15.87;;;3.20;99.90;;;;;;4987026;28;20491;-72
2023/01/25 21:17:34;;;;;;;25.47;15.10;;;3.20;99.90;;;;;;4987124;28;21014;-72
2023/01/25 21:20:01;;;;;;;26.03;13.83;;;3.20;99.90;;;;;;4987326;28;20487;-70
2023/01/25 21:22:29;;;;;;;26.67;15.20;;;3.20;99.90;;;;;;4987019;28;20510;-70
2023/01/25 21:24:56;;;;;;;28.00;13.83;;;3.20;99.90;;;;;;4985207;28;20471;-73
2023/01/25 21:27:23;;;;;;;18.00;11.80;;;3.20;99.90;;;;;;4988038;28;20432;-70
2023/01/25 21:29:52;;;;;;;21.80;12.40;;;3.10;99.90;;;;;;4987992;28;20467;-70
2023/01/25 21:32:19;;;;;;;23.10;12.90;;;3.10;99.90;;;;;;4986980;28;20945;-71
2023/01/25 21:34:46;;;;;;;24.73;13.77;;;3.00;99.90;;;;;;4984597;28;20487;-70
2023/01/25 21:37:21;;;;;;;24.20;13.27;;;3.00;99.90;;;;;;4988061;28;20987;-73
2023/01/25 21:39:51;;;;;;;27.10;15.10;;;3.00;99.90;;;;;;4987916;28;20887;-70
2023/01/25 21:42:18;;;;;;;24.13;13.77;;;3.00;99.90;;;;;;4987397;28;20499;-70
2023/01/25 21:47:31;;;;;;;27.23;14.60;;;3.00;99.90;;;;;;4988066;28;20782;-70
2023/01/25 21:52:42;;;;;;;24.43;14.80;;;2.90;99.90;;;;;;4987390;28;20935;-71
2023/01/25 21:55:10;;;;;;;23.47;13.83;;;2.90;99.90;;;;;;4986750;28;20484;-73
2023/01/25 21:57:39;;;;;;;22.63;13.53;;;2.90;99.90;;;;;;4987677;28;20455;-72
2023/01/25 22:00:07;;;;;;;23.17;13.03;;;2.90;99.90;;;;;;4987790;28;20509;-70
2023/01/25 22:02:34;;;;;;;25.60;14.33;;;2.90;99.90;;;;;;4987342;28;20502;-71
2023/01/25 22:05:01;;;;;;;24.57;15.03;;;2.80;99.90;;;;;;4986699;28;20475;-72
2023/01/25 22:07:27;;;;;;;27.20;14.70;;;2.70;99.90;;;;;;4987458;28;20463;-73
2023/01/25 22:09:54;;;;;;;22.80;13.13;;;2.70;99.90;;;;;;4987130;28;20459;-72
2023/01/25 22:12:24;;;;;;;26.13;14.70;;;2.60;99.90;;;;;;4987282;28;20794;-71
2023/01/25 22:14:51;;;;;;;24.33;13.60;;;2.50;99.90;;;;;;4986398;28;20476;-71
2023/01/25 22:17:18;;;;;;;26.80;14.70;;;2.50;99.90;;;;;;4987264;28;20464;-73
2023/01/25 22:19:45;;;;;;;23.00;13.97;;;2.50;99.90;;;;;;4987148;28;20544;-71
2023/01/25 22:22:12;;;;;;;24.90;13.43;;;2.50;99.90;;;;;;4987081;28;20527;-71
2023/01/25 22:24:38;;;;;;;26.83;14.17;;;2.50;99.90;;;;;;4986383;28;20480;-72
2023/01/25 22:27:31;;;;;;;30.17;15.37;;;2.50;99.90;;;;;;4987215;28;20463;-74
2023/01/25 22:29:58;;;;;;;26.23;15.00;;;2.40;99.90;;;;;;4987034;28;20440;-72
2023/01/25 22:32:25;;;;;;;27.57;15.40;;;2.40;99.90;;;;;;4986724;28;20456;-72
2023/01/25 22:34:52;;;;;;;31.77;16.77;;;2.40;99.90;;;;;;4986282;28;20471;-71
2023/01/25 22:37:18;;;;;;;26.73;14.60;;;2.30;99.90;;;;;;4986973;28;20465;-71
2023/01/25 22:39:45;;;;;;;29.07;15.50;;;2.30;99.90;;;;;;4986605;28;20467;-71
2023/01/25 22:42:12;;;;;;;34.80;16.17;;;2.30;99.90;;;;;;4986862;28;20459;-71
2023/01/25 22:44:40;;;;;;;26.53;14.47;;;2.20;99.90;;;;;;4986022;28;20472;-72
2023/01/25 22:47:07;;;;;;;29.93;15.40;;;2.20;99.90;;;;;;4986711;28;20451;-72
2023/01/25 22:49:34;;;;;;;28.03;15.30;;;2.10;99.90;;;;;;4986219;28;20478;-71
2023/01/25 22:52:00;;;;;;;35.50;16.83;;;2.00;99.90;;;;;;4986958;28;20466;-71
2023/01/25 22:54:27;;;;;;;30.20;15.67;;;1.90;99.90;;;;;;4985807;28;20471;-72
2023/01/25 22:56:54;;;;;;;28.13;14.53;;;2.00;99.90;;;;;;4986302;28;20466;-71
2023/01/25 22:59:21;;;;;;;25.97;14.17;;;2.10;99.90;;;;;;4986509;28;20458;-72
